Terminal Aerodrome Forecast
Issued by NWS Shreveport, LA

Home | Current Version | Previous Version | Text Only | Print | Product List | Glossary On
Versions: 1 2 3 4 5 6 7 8 9 10 11 12 13 14 15 16 17 18 19
000
FTUS44 KSHV 251150
TAFTYR
TAF
KTYR 251150Z 2512/2612 17007KT P6SM BKN013 OVC020
     FM251400 16008KT P6SM BKN020 OVC030
     FM251800 17013G20KT P6SM VCTS BKN025CB BKN060 BKN100
     FM252100 18014G22KT 4SM TSRA BR BKN035CB OVC060
     FM260300 17010KT 5SM -SHRA VCTS OVC020CB=

USA.gov is the U.S. government's official web portal to all federal, state and local government web resources and services.